createdAt,value
2019-03-17T17:14:05.258Z,8.10
2019-03-17T17:16:35.264Z,7.90
2019-03-17T17:19:04.977Z,7.90
2019-03-17T17:21:34.749Z,7.80
2019-03-17T17:24:11.189Z,7.70
2019-03-17T17:26:42.338Z,7.50
2019-03-17T17:29:11.950Z,7.40
2019-03-17T17:31:41.404Z,7.30
2019-03-17T17:34:10.875Z,7.20
2019-03-17T17:36:40.326Z,7.20
2019-03-17T17:39:09.964Z,7.30
2019-03-17T17:41:39.473Z,7.30
2019-03-17T17:44:09.054Z,7.20
2019-03-17T17:46:38.478Z,7.10
2019-03-17T17:49:07.955Z,7.00
2019-03-17T17:51:37.419Z,6.90
2019-03-17T17:54:06.763Z,7.10
2019-03-17T17:56:36.038Z,7.10
2019-03-17T17:59:05.326Z,7.10
2019-03-17T18:01:34.599Z,7.10
2019-03-17T18:04:04.168Z,7.10
2019-03-17T18:06:33.459Z,7.10
2019-03-17T18:09:02.882Z,7.20
2019-03-17T18:11:32.435Z,7.10
2019-03-17T18:14:01.770Z,7.00
2019-03-17T18:16:31.058Z,7.00
2019-03-17T18:19:00.363Z,6.90
2019-03-17T18:21:29.642Z,6.80
2019-03-17T18:23:59.011Z,6.70
2019-03-17T18:26:28.315Z,6.80
2019-03-17T18:28:57.584Z,6.70
2019-03-17T18:31:27.015Z,6.70
2019-03-17T18:33:56.455Z,6.60
2019-03-17T18:36:25.740Z,6.60
2019-03-17T18:38:55.003Z,6.60
2019-03-17T18:41:24.446Z,6.70
2019-03-17T18:43:53.719Z,6.80
2019-03-17T18:46:23.012Z,6.60
2019-03-17T18:48:52.303Z,6.70
2019-03-17T18:51:21.574Z,6.70
2019-03-17T18:53:50.866Z,6.70
2019-03-17T18:56:20.139Z,6.90
2019-03-17T18:58:49.436Z,6.30
2019-03-17T19:01:18.703Z,6.30
2019-03-17T19:03:48.050Z,6.30
2019-03-17T19:06:17.327Z,6.30
2019-03-17T19:08:46.617Z,6.30
2019-03-17T19:11:16.066Z,6.30
2019-03-17T19:13:45.361Z,6.50
2019-03-17T19:16:14.682Z,6.40
2019-03-17T19:18:43.999Z,6.40
2019-03-17T19:21:13.403Z,6.30
2019-03-17T19:23:42.699Z,6.30
2019-03-17T19:26:11.968Z,6.10
2019-03-17T19:28:42.247Z,6.10
2019-03-17T19:31:11.639Z,6.00
2019-03-17T19:33:40.926Z,6.10
2019-03-17T19:36:10.388Z,6.20
2019-03-17T19:38:39.647Z,6.40
2019-03-17T19:41:08.948Z,6.40
2019-03-17T19:43:38.211Z,6.40
2019-03-17T19:46:08.078Z,6.40
2019-03-17T19:48:37.374Z,6.50
2019-03-17T19:51:06.655Z,6.60
2019-03-17T19:53:35.967Z,6.30
2019-03-17T19:56:05.263Z,6.20
2019-03-17T19:58:34.598Z,6.10
2019-03-17T20:01:03.970Z,6.00
2019-03-17T20:03:33.246Z,5.90
2019-03-17T20:06:02.815Z,5.90
2019-03-17T20:08:32.249Z,5.90
2019-03-17T20:11:01.567Z,5.80
2019-03-17T20:13:30.851Z,5.90
2019-03-17T20:16:00.303Z,5.90
2019-03-17T20:18:29.669Z,5.80
2019-03-17T20:20:59.131Z,5.80
2019-03-17T20:23:28.529Z,5.70
2019-03-17T20:25:57.864Z,5.60
2019-03-17T20:28:27.162Z,5.70
2019-03-17T20:30:56.578Z,5.60
2019-03-17T20:33:25.932Z,5.40
2019-03-17T20:35:55.606Z,5.40
2019-03-17T20:38:24.934Z,5.50
2019-03-17T20:40:54.223Z,5.50
2019-03-17T20:43:34.224Z,5.30
2019-03-17T20:45:54.494Z,5.30
2019-03-17T20:48:23.816Z,5.20
2019-03-17T20:50:53.278Z,5.30
2019-03-17T20:53:22.638Z,5.40
2019-03-17T20:55:51.922Z,5.30
2019-03-17T20:58:21.226Z,5.20
2019-03-17T21:00:50.495Z,5.30
2019-03-17T21:03:19.794Z,5.20
2019-03-17T21:05:49.071Z,5.40
2019-03-17T21:08:18.359Z,5.40
2019-03-17T21:10:49.918Z,5.50
2019-03-17T21:13:18.691Z,5.60
2019-03-17T21:15:47.967Z,5.70
2019-03-17T21:18:17.262Z,5.70
2019-03-17T21:20:46.539Z,5.70
2019-03-17T21:23:15.913Z,5.90
2019-03-17T21:25:45.258Z,6.00
2019-03-17T21:28:14.616Z,6.00
2019-03-17T21:30:43.922Z,5.90
2019-03-17T21:33:13.226Z,5.80
2019-03-17T21:35:42.479Z,5.90
2019-03-17T21:38:11.851Z,5.90
2019-03-17T21:41:01.408Z,5.90
2019-03-17T21:43:12.378Z,8.00
2019-03-17T21:45:41.758Z,5.80
2019-03-17T21:48:11.156Z,5.90
2019-03-17T21:50:41.499Z,5.80
2019-03-17T21:53:10.942Z,5.80
2019-03-17T21:55:40.199Z,5.80
2019-03-17T21:58:09.499Z,5.80
2019-03-17T22:00:38.826Z,5.70
2019-03-17T22:03:08.317Z,5.60
2019-03-17T22:05:37.762Z,5.60
2019-03-17T22:08:07.196Z,5.50
2019-03-17T22:10:37.208Z,5.50
2019-03-17T22:13:06.627Z,5.40
2019-03-17T22:15:35.993Z,5.40
2019-03-17T22:18:05.274Z,5.30
2019-03-17T22:20:34.672Z,5.30
2019-03-17T22:23:04.090Z,5.30
2019-03-17T22:25:33.431Z,5.20
2019-03-17T22:28:08.215Z,5.40
2019-03-17T22:30:33.694Z,5.30
2019-03-17T22:33:03.007Z,5.20
2019-03-17T22:35:32.394Z,5.20
2019-03-17T22:38:01.694Z,5.10
2019-03-17T22:40:31.129Z,5.00
2019-03-17T22:43:00.541Z,4.80
2019-03-17T22:45:29.980Z,4.70
2019-03-17T22:47:59.262Z,4.60
2019-03-17T22:50:28.567Z,4.50
2019-03-17T22:52:57.901Z,4.30
2019-03-17T22:55:27.350Z,4.20
2019-03-17T22:57:59.054Z,4.10
2019-03-17T23:00:35.429Z,4.00
2019-03-17T23:03:06.429Z,3.90
2019-03-17T23:05:35.782Z,4.00
2019-03-17T23:08:05.071Z,4.00
2019-03-17T23:10:34.431Z,4.00
2019-03-17T23:13:03.813Z,4.10
2019-03-17T23:15:35.509Z,4.10
2019-03-17T23:18:04.434Z,4.10
2019-03-17T23:20:33.738Z,4.10
2019-03-17T23:23:03.007Z,4.10
2019-03-17T23:25:32.303Z,4.10
2019-03-17T23:28:01.575Z,4.00
2019-03-17T23:30:30.872Z,3.90
2019-03-17T23:33:00.142Z,4.00
2019-03-17T23:35:29.443Z,3.90
2019-03-17T23:37:58.715Z,4.00
2019-03-17T23:40:28.015Z,4.00
2019-03-17T23:42:57.287Z,4.00
2019-03-17T23:45:26.662Z,3.90
2019-03-17T23:47:55.936Z,4.00
2019-03-17T23:50:25.205Z,4.10
2019-03-17T23:52:54.551Z,4.10
2019-03-17T23:55:23.826Z,4.10
2019-03-17T23:57:53.239Z,4.10
